createdAt,value
2022-08-05T00:02:07.963Z,20.10
2022-08-05T00:04:14.341Z,16.20
2022-08-05T00:06:29.071Z,17.27
2022-08-05T00:08:36.258Z,26.40
2022-08-05T00:10:40.441Z,30.97
2022-08-05T00:12:55.945Z,24.70
2022-08-05T00:14:59.593Z,20.60
2022-08-05T00:17:22.309Z,33.33
2022-08-05T00:19:32.906Z,35.27
2022-08-05T00:21:36.786Z,32.60
2022-08-05T00:23:45.992Z,25.20
2022-08-05T00:25:51.205Z,24.73
2022-08-05T00:27:56.720Z,28.73
2022-08-05T00:30:00.576Z,33.47
2022-08-05T00:32:12.614Z,31.60
2022-08-05T00:34:56.351Z,30.30
2022-08-05T00:37:12.424Z,32.53
2022-08-05T00:39:02.879Z,30.17
2022-08-05T00:41:11.705Z,40.13
2022-08-05T00:43:15.353Z,39.70
2022-08-05T00:45:18.356Z,29.07
2022-08-05T00:47:53.309Z,33.13
2022-08-05T00:49:54.023Z,28.13
2022-08-05T00:51:57.087Z,36.83
2022-08-05T00:54:02.534Z,35.73
2022-08-05T00:56:08.178Z,28.10
2022-08-05T00:58:11.462Z,28.43
2022-08-05T01:00:14.834Z,35.43
2022-08-05T01:02:19.807Z,34.60
2022-08-05T01:04:30.000Z,28.83
2022-08-05T01:06:32.948Z,25.40
2022-08-05T01:08:43.426Z,31.40
2022-08-05T01:10:51.557Z,30.50
2022-08-05T01:13:12.731Z,30.00
2022-08-05T01:15:18.695Z,28.27
2022-08-05T01:17:43.886Z,24.13
2022-08-05T01:20:01.569Z,36.23
2022-08-05T01:22:24.246Z,30.83
2022-08-05T01:25:02.840Z,29.80
2022-08-05T01:27:19.472Z,31.40
2022-08-05T01:29:30.680Z,24.73
2022-08-05T01:31:44.893Z,30.60
2022-08-05T01:33:53.494Z,29.70
2022-08-05T01:35:57.448Z,31.23
2022-08-05T01:38:00.427Z,28.70
2022-08-05T01:40:04.776Z,25.27
2022-08-05T01:42:09.618Z,26.20
2022-08-05T01:44:12.528Z,32.63
2022-08-05T01:46:43.073Z,35.17
2022-08-05T01:48:42.072Z,29.90
2022-08-05T01:50:51.128Z,36.63
2022-08-05T01:52:54.555Z,27.53
2022-08-05T01:54:58.739Z,28.40
2022-08-05T01:58:13.082Z,27.10
2022-08-05T01:59:26.030Z,32.07
2022-08-05T02:01:30.140Z,30.57
2022-08-05T02:03:44.449Z,34.43
2022-08-05T02:05:47.156Z,26.80
2022-08-05T02:08:00.398Z,29.33
2022-08-05T02:10:05.167Z,27.33
2022-08-05T02:12:13.548Z,34.40
2022-08-05T02:14:18.309Z,37.73
2022-08-05T02:16:22.554Z,26.37
2022-08-05T02:18:34.353Z,25.70
2022-08-05T02:20:41.361Z,25.60
2022-08-05T02:22:47.785Z,22.03
2022-08-05T02:24:52.718Z,22.03
2022-08-05T02:26:57.370Z,30.27
2022-08-05T02:29:00.094Z,26.40
2022-08-05T02:31:05.829Z,32.10
2022-08-05T02:33:10.434Z,37.33
2022-08-05T02:35:18.959Z,34.63
2022-08-05T02:37:25.217Z,35.03
2022-08-05T02:39:28.967Z,28.90
2022-08-05T02:41:43.194Z,25.67
2022-08-05T02:44:02.347Z,29.63
2022-08-05T02:46:09.598Z,33.33
2022-08-05T02:48:19.310Z,37.43
2022-08-05T02:50:32.968Z,32.33
2022-08-05T02:52:35.705Z,29.70
2022-08-05T02:54:41.368Z,28.03
2022-08-05T02:56:46.061Z,37.60
2022-08-05T02:58:51.247Z,26.50
2022-08-05T03:00:54.502Z,29.43
2022-08-05T03:02:57.311Z,27.93
2022-08-05T03:05:00.438Z,30.30
2022-08-05T03:07:04.524Z,29.70
2022-08-05T03:09:07.783Z,28.40
2022-08-05T03:11:56.921Z,27.80
2022-08-05T03:13:52.130Z,35.93
2022-08-05T03:16:06.505Z,22.47
2022-08-05T03:18:12.083Z,34.90
2022-08-05T03:20:20.072Z,28.40
2022-08-05T03:22:32.332Z,31.70
2022-08-05T03:24:35.480Z,34.70
2022-08-05T03:26:38.290Z,21.23
2022-08-05T03:28:41.097Z,32.60
2022-08-05T03:30:43.804Z,28.00
2022-08-05T03:32:46.834Z,28.23
2022-08-05T03:34:51.310Z,25.17
2022-08-05T03:36:54.413Z,31.70
2022-08-05T03:38:58.605Z,31.70
2022-08-05T03:41:08.228Z,28.80
2022-08-05T03:43:59.149Z,35.97
2022-08-05T03:45:57.088Z,27.13
2022-08-05T03:47:57.159Z,34.17
2022-08-05T03:50:01.256Z,28.83
2022-08-05T03:52:36.627Z,25.47
2022-08-05T03:55:52.037Z,45.03
2022-08-05T03:56:55.427Z,35.17
2022-08-05T03:59:02.711Z,35.20
2022-08-05T04:01:07.086Z,30.03
2022-08-05T04:03:26.597Z,31.67
2022-08-05T04:05:34.609Z,35.20
2022-08-05T04:07:53.559Z,28.33
2022-08-05T04:10:03.172Z,38.83
2022-08-05T04:12:24.367Z,28.87
2022-08-05T04:14:30.130Z,26.17
2022-08-05T04:16:35.355Z,29.77
2022-08-05T04:18:39.387Z,30.67
2022-08-05T04:20:42.490Z,24.07
2022-08-05T04:22:47.737Z,40.03
2022-08-05T04:24:52.538Z,27.57
2022-08-05T04:26:58.105Z,36.57
2022-08-05T04:29:01.100Z,29.70
2022-08-05T04:31:10.539Z,29.87
2022-08-05T04:33:13.427Z,20.40
2022-08-05T04:35:19.576Z,26.67
2022-08-05T04:38:00.687Z,23.93
2022-08-05T04:39:45.398Z,25.60
2022-08-05T04:41:57.083Z,21.63
2022-08-05T04:43:59.800Z,23.03
2022-08-05T04:46:04.016Z,27.80
2022-08-05T04:48:16.371Z,23.30
2022-08-05T04:50:37.443Z,34.47
2022-08-05T04:52:53.222Z,22.20
2022-08-05T04:54:57.380Z,25.27
2022-08-05T04:57:01.898Z,31.07
2022-08-05T04:59:22.042Z,23.70
2022-08-05T05:02:06.710Z,32.73
2022-08-05T05:03:49.795Z,25.37
2022-08-05T05:06:38.839Z,23.57
2022-08-05T05:08:30.100Z,25.83
2022-08-05T05:10:34.804Z,21.77
2022-08-05T05:12:38.868Z,31.40
2022-08-05T05:14:42.732Z,24.93
2022-08-05T05:16:53.640Z,25.03
2022-08-05T05:19:18.619Z,37.00
2022-08-05T05:21:20.221Z,24.90
2022-08-05T05:23:23.103Z,21.90
2022-08-05T05:25:40.585Z,27.70
2022-08-05T05:27:53.452Z,31.47
2022-08-05T05:30:04.091Z,40.33
2022-08-05T05:32:12.499Z,49.17
2022-08-05T05:34:24.170Z,27.30
2022-08-05T05:36:30.191Z,22.97
2022-08-05T05:38:33.057Z,28.93
2022-08-05T05:40:35.920Z,26.93
2022-08-05T05:42:39.150Z,21.23
2022-08-05T05:44:51.064Z,23.33
2022-08-05T05:46:53.808Z,19.63
2022-08-05T05:48:58.978Z,17.73
2022-08-05T05:51:15.677Z,23.17
2022-08-05T05:53:21.424Z,18.43
2022-08-05T05:55:25.372Z,15.00
2022-08-05T05:57:52.813Z,15.53
2022-08-05T05:59:57.247Z,13.20
2022-08-05T06:01:59.966Z,26.13
2022-08-05T06:04:03.972Z,19.83
2022-08-05T06:06:07.323Z,15.70
2022-08-05T06:08:10.509Z,15.20
2022-08-05T06:10:13.896Z,14.23
2022-08-05T06:12:18.452Z,25.93
2022-08-05T06:14:22.357Z,28.63
2022-08-05T06:16:32.799Z,21.37
2022-08-05T06:18:39.287Z,18.70
2022-08-05T06:20:42.170Z,14.63
2022-08-05T06:22:50.527Z,25.10
2022-08-05T06:24:53.524Z,20.30
2022-08-05T06:26:56.250Z,18.00
2022-08-05T06:28:58.995Z,16.07
2022-08-05T06:31:11.078Z,16.20
2022-08-05T06:33:33.373Z,24.50
2022-08-05T06:36:07.227Z,25.40
2022-08-05T06:38:08.364Z,26.70
2022-08-05T06:40:18.071Z,16.07
2022-08-05T06:42:24.368Z,39.17
2022-08-05T06:44:28.334Z,17.87
2022-08-05T06:46:31.153Z,21.60
2022-08-05T06:48:53.466Z,17.20
2022-08-05T06:50:58.410Z,19.73
2022-08-05T06:53:11.437Z,22.07
2022-08-05T06:55:14.515Z,24.10
2022-08-05T06:57:58.011Z,19.83
2022-08-05T06:59:42.216Z,13.10
2022-08-05T07:01:52.985Z,15.87
2022-08-05T07:03:57.240Z,16.20
2022-08-05T07:06:06.010Z,22.80
2022-08-05T07:08:16.754Z,17.43
2022-08-05T07:10:19.468Z,21.23
2022-08-05T07:12:51.033Z,33.33
2022-08-05T07:15:11.780Z,16.33
2022-08-05T07:18:08.977Z,31.43
2022-08-05T07:20:32.551Z,15.30
2022-08-05T07:22:28.943Z,15.70
2022-08-05T07:24:33.813Z,23.67
2022-08-05T07:26:47.121Z,20.10
2022-08-05T07:28:50.645Z,16.40
2022-08-05T07:30:55.074Z,10.53
2022-08-05T07:32:58.081Z,14.77
2022-08-05T07:35:55.607Z,16.70
2022-08-05T07:37:25.081Z,13.93
2022-08-05T07:40:03.990Z,18.50
2022-08-05T07:42:13.453Z,23.23
2022-08-05T07:44:19.016Z,14.43
2022-08-05T07:46:25.189Z,16.60
2022-08-05T07:49:00.426Z,12.90
2022-08-05T07:50:52.637Z,17.47
2022-08-05T07:52:55.499Z,16.23
2022-08-05T07:54:58.543Z,24.37
2022-08-05T07:57:17.594Z,13.00
2022-08-05T07:59:38.232Z,17.73
2022-08-05T08:01:43.343Z,13.20
2022-08-05T08:03:55.232Z,16.60
2022-08-05T08:06:00.909Z,12.77
2022-08-05T08:08:03.653Z,15.37
2022-08-05T08:10:06.681Z,16.53
2022-08-05T08:12:19.902Z,19.13
2022-08-05T08:14:32.548Z,15.97
2022-08-05T08:16:50.831Z,16.17
2022-08-05T08:18:54.256Z,10.93
2022-08-05T08:21:01.979Z,13.07
2022-08-05T08:24:00.338Z,15.60
2022-08-05T08:25:59.017Z,14.90
2022-08-05T08:27:53.888Z,20.53
2022-08-05T08:30:04.135Z,13.03
2022-08-05T08:32:10.901Z,11.30
2022-08-05T08:34:14.455Z,10.67
2022-08-05T08:36:48.840Z,13.13
2022-08-05T08:38:41.268Z,11.53
2022-08-05T08:40:50.494Z,15.13
2022-08-05T08:42:54.755Z,13.90
2022-08-05T08:45:18.935Z,12.87
2022-08-05T08:48:07.049Z,17.97
2022-08-05T08:50:22.323Z,15.63
2022-08-05T08:52:14.189Z,19.63
2022-08-05T08:54:18.573Z,11.63
2022-08-05T08:56:23.611Z,12.23
2022-08-05T08:58:37.458Z,12.97
2022-08-05T09:00:48.469Z,8.03
2022-08-05T09:02:51.363Z,11.07
2022-08-05T09:05:16.310Z,8.90
2022-08-05T09:07:19.657Z,10.13
2022-08-05T09:09:35.391Z,8.27
2022-08-05T09:11:52.922Z,8.03
2022-08-05T09:14:09.626Z,11.20
2022-08-05T09:16:20.513Z,11.00
2022-08-05T09:18:23.247Z,7.80
2022-08-05T09:20:37.865Z,8.47
2022-08-05T09:23:07.823Z,7.82
2022-08-05T09:25:24.303Z,10.70
2022-08-05T09:28:05.977Z,5.13
2022-08-05T09:30:06.646Z,6.10
2022-08-05T09:32:41.686Z,9.60
2022-08-05T09:34:50.413Z,16.00
2022-08-05T09:36:56.391Z,7.93
2022-08-05T09:39:02.827Z,11.50
2022-08-05T09:41:08.141Z,5.60
2022-08-05T09:43:11.129Z,16.13
2022-08-05T09:46:04.597Z,13.93
2022-08-05T09:47:49.018Z,11.57
2022-08-05T09:50:01.996Z,15.73
2022-08-05T09:52:18.466Z,11.17
2022-08-05T09:54:31.530Z,11.40
2022-08-05T09:56:37.769Z,15.90
2022-08-05T09:58:42.034Z,11.50
2022-08-05T10:00:55.805Z,9.70
2022-08-05T10:03:00.349Z,11.63
2022-08-05T10:05:11.701Z,9.00
2022-08-05T10:07:20.815Z,8.40
2022-08-05T10:09:45.098Z,14.70
2022-08-05T10:11:50.763Z,10.40
2022-08-05T10:13:54.684Z,8.83
2022-08-05T10:15:58.239Z,14.90
2022-08-05T10:18:12.253Z,10.50
2022-08-05T10:20:18.298Z,8.20
2022-08-05T10:22:29.710Z,11.33
2022-08-05T10:24:33.543Z,11.73
2022-08-05T10:26:52.101Z,13.30
2022-08-05T10:28:56.719Z,54.43
2022-08-05T10:32:53.046Z,17.60
2022-08-05T10:33:23.477Z,29.23
2022-08-05T10:35:40.363Z,23.57
2022-08-05T10:37:46.794Z,23.43
2022-08-05T10:40:03.661Z,13.00
2022-08-05T10:42:18.560Z,12.13
2022-08-05T10:44:26.792Z,17.03
2022-08-05T10:46:44.370Z,15.77
2022-08-05T10:48:56.868Z,14.10
2022-08-05T10:51:04.009Z,9.60
2022-08-05T10:53:06.793Z,11.07
2022-08-05T10:55:11.632Z,11.97
2022-08-05T10:57:26.584Z,12.67
2022-08-05T11:00:02.043Z,11.33
2022-08-05T11:02:08.701Z,14.30
2022-08-05T11:04:18.323Z,19.20
2022-08-05T11:06:30.962Z,18.40
2022-08-05T11:08:38.195Z,10.63
2022-08-05T11:10:50.324Z,9.03
2022-08-05T11:13:05.177Z,8.90
2022-08-05T11:15:19.750Z,12.00
2022-08-05T11:17:58.650Z,10.53
2022-08-05T11:20:10.371Z,13.20
2022-08-05T11:22:42.161Z,16.27
2022-08-05T11:25:01.594Z,9.90
2022-08-05T11:27:29.898Z,12.73
2022-08-05T11:30:00.251Z,43.70
2022-08-05T11:32:25.561Z,8.70
2022-08-05T11:34:37.186Z,11.27
2022-08-05T11:36:52.959Z,8.60
2022-08-05T11:38:57.581Z,10.30
2022-08-05T11:41:12.873Z,9.00
2022-08-05T11:44:00.870Z,11.23
2022-08-05T11:46:27.108Z,10.93
2022-08-05T11:48:14.304Z,9.97
2022-08-05T11:50:17.445Z,11.50
2022-08-05T11:52:29.330Z,11.97
2022-08-05T11:54:34.863Z,8.97
2022-08-05T11:56:50.155Z,12.20
2022-08-05T11:58:53.601Z,62.23
2022-08-05T12:01:02.511Z,7.03
2022-08-05T12:03:28.479Z,9.33
2022-08-05T12:05:36.329Z,10.67
2022-08-05T12:08:03.142Z,12.73
2022-08-05T12:10:09.507Z,14.27
2022-08-05T12:12:14.356Z,10.23
2022-08-05T12:14:17.421Z,12.50
2022-08-05T12:16:25.426Z,13.40
2022-08-05T12:18:33.815Z,9.13
2022-08-05T12:20:41.546Z,8.23
2022-08-05T12:22:46.153Z,8.03
2022-08-05T12:24:50.495Z,9.70
2022-08-05T12:26:54.147Z,10.23
2022-08-05T12:28:56.871Z,9.03
2022-08-05T12:31:01.984Z,7.27
2022-08-05T12:33:07.415Z,15.70
2022-08-05T12:35:39.450Z,9.43
2022-08-05T12:37:42.566Z,10.90
2022-08-05T12:39:48.611Z,10.00
2022-08-05T12:41:58.460Z,12.07
2022-08-05T12:44:02.917Z,8.20
2022-08-05T12:46:05.752Z,9.87
2022-08-05T12:48:27.716Z,10.83
2022-08-05T12:50:36.549Z,10.67
2022-08-05T12:52:42.378Z,8.67
2022-08-05T12:54:46.094Z,11.00
2022-08-05T12:56:53.562Z,10.10
2022-08-05T12:59:14.003Z,9.43
2022-08-05T13:02:00.765Z,6.90
2022-08-05T13:03:48.752Z,8.03
2022-08-05T13:05:56.053Z,10.20
2022-08-05T13:08:01.076Z,6.07
2022-08-05T13:10:04.635Z,7.73
2022-08-05T13:12:08.576Z,7.43
2022-08-05T13:14:24.546Z,9.07
2022-08-05T13:16:47.063Z,5.67
2022-08-05T13:18:55.174Z,5.77
2022-08-05T13:21:01.869Z,6.17
2022-08-05T13:23:07.159Z,5.87
2022-08-05T13:25:18.904Z,4.30
2022-08-05T13:27:38.403Z,7.33
2022-08-05T13:30:31.462Z,3.90
2022-08-05T13:32:05.511Z,5.23
2022-08-05T13:34:24.394Z,10.13
2022-08-05T13:36:29.816Z,4.80
2022-08-05T13:38:36.081Z,8.27
2022-08-05T13:40:48.164Z,4.70
2022-08-05T13:42:55.627Z,8.33
2022-08-05T13:44:59.010Z,8.70
2022-08-05T13:47:08.864Z,7.40
2022-08-05T13:49:12.635Z,7.37
2022-08-05T13:51:15.428Z,4.40
2022-08-05T13:53:19.811Z,5.47
2022-08-05T13:55:41.458Z,4.67
2022-08-05T13:57:49.016Z,8.60
2022-08-05T13:59:55.366Z,6.20
2022-08-05T14:02:00.935Z,6.80
2022-08-05T14:04:26.936Z,11.10
2022-08-05T14:06:29.670Z,6.30
2022-08-05T14:08:33.993Z,3.60
2022-08-05T14:10:38.801Z,5.50
2022-08-05T14:12:42.819Z,5.53
2022-08-05T14:14:45.915Z,5.17
2022-08-05T14:16:51.107Z,3.83
2022-08-05T14:18:58.107Z,3.53
2022-08-05T14:22:07.883Z,5.97
2022-08-05T14:23:36.305Z,6.50
2022-08-05T14:25:45.387Z,5.07
2022-08-05T14:27:49.454Z,10.10
2022-08-05T14:29:52.232Z,7.20
2022-08-05T14:32:12.136Z,10.60
2022-08-05T14:34:17.644Z,7.70
2022-08-05T14:36:21.256Z,7.57
2022-08-05T14:38:27.773Z,6.30
2022-08-05T14:40:36.136Z,7.07
2022-08-05T14:42:41.193Z,5.47
2022-08-05T14:44:45.785Z,7.63
2022-08-05T14:46:48.510Z,5.67
2022-08-05T14:48:51.548Z,7.63
2022-08-05T14:50:55.637Z,7.07
2022-08-05T14:52:59.609Z,7.83
2022-08-05T14:55:02.716Z,5.20
2022-08-05T14:57:09.728Z,5.40
2022-08-05T14:59:18.310Z,4.13
2022-08-05T15:01:48.871Z,9.50
2022-08-05T15:03:46.761Z,8.10
2022-08-05T15:06:07.685Z,5.70
2022-08-05T15:08:38.142Z,5.20
2022-08-05T15:10:37.484Z,3.87
2022-08-05T15:13:00.518Z,4.80
2022-08-05T15:15:04.593Z,6.53
2022-08-05T15:17:44.433Z,7.40
2022-08-05T15:19:36.176Z,7.20
2022-08-05T15:21:41.720Z,5.70
2022-08-05T15:23:44.517Z,8.47
2022-08-05T15:25:52.246Z,6.53
2022-08-05T15:27:57.386Z,4.40
2022-08-05T15:30:00.161Z,6.87
2022-08-05T15:32:05.729Z,5.70
2022-08-05T15:34:31.844Z,6.20
2022-08-05T15:36:31.447Z,7.23
2022-08-05T15:38:41.862Z,5.53
2022-08-05T15:41:21.926Z,4.80
2022-08-05T15:43:12.654Z,6.70
2022-08-05T15:45:38.321Z,7.40
2022-08-05T15:47:44.097Z,12.20
2022-08-05T15:49:56.846Z,10.10
2022-08-05T15:52:04.418Z,4.90
2022-08-05T15:54:19.215Z,5.23
2022-08-05T15:56:22.001Z,9.60
2022-08-05T15:58:25.687Z,6.77
2022-08-05T16:00:50.231Z,8.77
2022-08-05T16:02:53.804Z,4.80
2022-08-05T16:04:57.678Z,7.33
2022-08-05T16:07:00.405Z,5.23
2022-08-05T16:09:03.245Z,5.33
2022-08-05T16:11:06.107Z,12.00
2022-08-05T16:13:10.765Z,6.87
2022-08-05T16:15:18.360Z,8.60
2022-08-05T16:17:22.702Z,8.17
2022-08-05T16:20:04.958Z,8.70
2022-08-05T16:21:58.742Z,7.63
2022-08-05T16:24:03.650Z,7.80
2022-08-05T16:26:07.224Z,6.17
2022-08-05T16:28:10.631Z,5.00
2022-08-05T16:30:25.619Z,7.33
2022-08-05T16:32:29.851Z,6.30
2022-08-05T16:34:34.009Z,8.17
2022-08-05T16:36:36.761Z,5.00
2022-08-05T16:38:44.741Z,10.03
2022-08-05T16:41:00.171Z,5.43
2022-08-05T16:43:03.689Z,8.43
2022-08-05T16:46:06.371Z,4.63
2022-08-05T16:47:36.200Z,6.57
2022-08-05T16:49:44.960Z,4.93
2022-08-05T16:51:51.356Z,6.40
2022-08-05T16:54:02.409Z,4.13
2022-08-05T16:56:09.385Z,3.73
2022-08-05T16:58:14.480Z,7.53
2022-08-05T17:00:25.938Z,3.50
2022-08-05T17:02:37.441Z,3.60
2022-08-05T17:04:40.381Z,2.60
2022-08-05T17:06:44.566Z,2.30
2022-08-05T17:08:56.314Z,4.83
2022-08-05T17:11:00.736Z,4.73
2022-08-05T17:13:03.560Z,3.63
2022-08-05T17:15:07.540Z,2.77
2022-08-05T17:17:14.909Z,4.57
2022-08-05T17:19:18.027Z,3.67
2022-08-05T17:21:20.776Z,4.50
2022-08-05T17:24:03.408Z,3.00
2022-08-05T17:25:50.589Z,7.70
2022-08-05T17:27:54.589Z,5.10
2022-08-05T17:30:00.556Z,2.30
2022-08-05T17:32:06.641Z,9.67
2022-08-05T17:34:11.232Z,6.17
2022-08-05T17:36:32.467Z,6.47
2022-08-05T17:38:39.873Z,2.53
2022-08-05T17:40:42.826Z,5.57
2022-08-05T17:42:50.911Z,6.53
2022-08-05T17:44:54.825Z,3.30
2022-08-05T17:46:57.617Z,3.63
2022-08-05T17:49:00.342Z,4.77
2022-08-05T17:51:03.416Z,9.33
2022-08-05T17:53:12.019Z,4.17
2022-08-05T17:55:16.438Z,5.90
2022-08-05T17:57:21.179Z,11.63
2022-08-05T17:59:24.358Z,2.50
2022-08-05T18:01:27.103Z,5.13
2022-08-05T18:05:53.674Z,5.03
2022-08-05T18:07:57.452Z,4.03
2022-08-05T18:10:02.129Z,5.30
2022-08-05T18:12:14.289Z,2.67
2022-08-05T18:14:24.996Z,2.70
2022-08-05T18:16:28.109Z,8.40
2022-08-05T18:18:30.878Z,2.23
2022-08-05T18:20:33.609Z,1.97
2022-08-05T18:22:53.841Z,2.87
2022-08-05T18:24:57.509Z,4.77
2022-08-05T18:27:00.315Z,3.23
2022-08-05T18:29:04.462Z,3.17
2022-08-05T18:31:12.989Z,6.17
2022-08-05T18:33:22.766Z,1.90
2022-08-05T18:35:28.315Z,2.70
2022-08-05T18:37:48.858Z,6.50
2022-08-05T18:40:34.478Z,11.00
2022-08-05T18:42:14.338Z,1.87
2022-08-05T18:44:33.018Z,8.60
2022-08-05T18:46:38.056Z,4.60
2022-08-05T18:48:44.077Z,3.30
2022-08-05T18:52:02.758Z,3.40
2022-08-05T18:53:28.904Z,5.37
2022-08-05T18:55:37.516Z,6.60
2022-08-05T18:57:50.088Z,2.60
2022-08-05T19:00:02.194Z,4.23
2022-08-05T19:02:11.414Z,4.23
2022-08-05T19:04:30.512Z,4.10
2022-08-05T19:06:44.710Z,2.20
2022-08-05T19:08:48.386Z,6.43
2022-08-05T19:10:51.149Z,2.80
2022-08-05T19:12:53.892Z,4.77
2022-08-05T19:15:00.676Z,5.60
2022-08-05T19:17:06.462Z,5.17
2022-08-05T19:19:10.565Z,2.57
2022-08-05T19:21:15.804Z,2.87
2022-08-05T19:24:04.235Z,4.23
2022-08-05T19:25:43.580Z,4.10
2022-08-05T19:27:47.200Z,4.03
2022-08-05T19:29:52.537Z,2.47
2022-08-05T19:31:57.345Z,2.20
2022-08-05T19:34:00.248Z,3.17
2022-08-05T19:36:06.193Z,3.27
2022-08-05T19:38:09.581Z,5.70
2022-08-05T19:40:12.709Z,2.30
2022-08-05T19:42:17.908Z,10.03
2022-08-05T19:44:20.694Z,7.63
2022-08-05T19:46:29.196Z,5.10
2022-08-05T19:48:37.016Z,6.03
2022-08-05T19:50:40.099Z,7.50
2022-08-05T19:52:43.341Z,4.10
2022-08-05T19:54:50.569Z,5.77
2022-08-05T19:56:54.179Z,2.60
2022-08-05T19:58:57.035Z,3.50
2022-08-05T20:00:59.987Z,2.67
2022-08-05T20:03:08.602Z,6.70
2022-08-05T20:05:24.018Z,4.90
2022-08-05T20:07:47.049Z,5.30
2022-08-05T20:09:54.899Z,5.70
2022-08-05T20:11:59.411Z,2.23
2022-08-05T20:14:12.408Z,9.13
2022-08-05T20:16:19.526Z,4.40
2022-08-05T20:18:33.375Z,3.70
2022-08-05T20:20:43.877Z,5.57
2022-08-05T20:22:47.573Z,9.97
2022-08-05T20:24:52.158Z,4.40
2022-08-05T20:26:56.549Z,2.63
2022-08-05T20:29:00.704Z,2.50
2022-08-05T20:31:03.869Z,3.17
2022-08-05T20:33:07.516Z,9.13
2022-08-05T20:35:10.576Z,3.83
2022-08-05T20:37:17.808Z,3.30
2022-08-05T20:39:35.633Z,11.50
2022-08-05T20:41:44.515Z,2.77
2022-08-05T20:44:00.088Z,3.30
2022-08-05T20:46:07.577Z,5.23
2022-08-05T20:48:11.085Z,3.27
2022-08-05T20:50:15.096Z,5.53
2022-08-05T20:52:19.517Z,3.50
2022-08-05T20:54:22.408Z,4.17
2022-08-05T20:56:29.112Z,16.03
2022-08-05T20:58:32.841Z,3.00
2022-08-05T21:00:44.136Z,8.67
2022-08-05T21:02:56.891Z,5.00
2022-08-05T21:05:02.520Z,3.90
2022-08-05T21:07:05.616Z,2.80
2022-08-05T21:09:12.924Z,4.43
2022-08-05T21:12:07.463Z,15.93
2022-08-05T21:13:48.055Z,4.37
2022-08-05T21:15:59.460Z,3.53
2022-08-05T21:18:02.196Z,3.13
2022-08-05T21:20:10.004Z,3.47
2022-08-05T21:22:13.156Z,3.63
2022-08-05T21:24:19.383Z,2.43
2022-08-05T21:26:22.498Z,5.83
2022-08-05T21:28:30.802Z,4.00
2022-08-05T21:30:34.129Z,10.27
2022-08-05T21:32:36.847Z,4.60
2022-08-05T21:34:41.136Z,8.87
2022-08-05T21:36:46.437Z,7.87
2022-08-05T21:38:51.699Z,3.77
2022-08-05T21:40:56.284Z,6.10
2022-08-05T21:42:59.377Z,2.00
2022-08-05T21:45:02.626Z,4.23
2022-08-05T21:47:32.846Z,5.00
2022-08-05T21:49:58.472Z,5.03
2022-08-05T21:52:15.763Z,6.40
2022-08-05T21:54:14.994Z,7.00
2022-08-05T21:56:19.159Z,2.30
2022-08-05T21:58:25.030Z,2.63
2022-08-05T22:00:35.006Z,4.00
2022-08-05T22:02:38.684Z,5.23
2022-08-05T22:04:41.419Z,5.00
2022-08-05T22:06:50.469Z,3.13
2022-08-05T22:08:53.440Z,3.30
2022-08-05T22:10:58.033Z,5.00
2022-08-05T22:13:09.334Z,4.50
2022-08-05T22:16:00.382Z,4.90
2022-08-05T22:17:48.707Z,9.23
2022-08-05T22:20:13.620Z,5.47
2022-08-05T22:22:20.172Z,9.03
2022-08-05T22:24:51.803Z,2.87
2022-08-05T22:27:16.710Z,4.43
2022-08-05T22:29:26.168Z,7.47
2022-08-05T22:31:30.048Z,3.00
2022-08-05T22:33:57.456Z,5.40
2022-08-05T22:35:55.861Z,3.33
2022-08-05T22:37:59.744Z,5.47
2022-08-05T22:40:02.587Z,3.37
2022-08-05T22:42:11.436Z,3.43
2022-08-05T22:44:16.028Z,2.13
2022-08-05T22:46:25.875Z,7.60
2022-08-05T22:48:28.683Z,1.97
2022-08-05T22:50:31.512Z,4.40
2022-08-05T22:52:34.596Z,6.60
2022-08-05T22:54:37.427Z,7.80
2022-08-05T22:56:41.630Z,4.40
2022-08-05T22:58:44.941Z,4.33
2022-08-05T23:00:47.644Z,7.43
2022-08-05T23:02:53.181Z,2.50
2022-08-05T23:04:56.274Z,5.13
2022-08-05T23:06:59.016Z,9.73
2022-08-05T23:09:24.651Z,3.70
2022-08-05T23:11:24.559Z,3.33
2022-08-05T23:13:27.274Z,2.90
2022-08-05T23:15:34.843Z,9.87
2022-08-05T23:18:01.153Z,6.23
2022-08-05T23:20:02.622Z,4.60
2022-08-05T23:22:05.650Z,3.73
2022-08-05T23:24:11.476Z,3.30
2022-08-05T23:26:14.518Z,5.50
2022-08-05T23:28:17.992Z,3.13
2022-08-05T23:30:21.195Z,2.80
2022-08-05T23:32:31.128Z,7.13
2022-08-05T23:34:33.835Z,5.03
2022-08-05T23:36:40.132Z,7.47
2022-08-05T23:38:46.972Z,3.20
2022-08-05T23:40:50.571Z,7.67
2022-08-05T23:42:55.653Z,5.83
2022-08-05T23:44:58.839Z,3.00
2022-08-05T23:47:15.575Z,4.10
2022-08-05T23:49:23.679Z,4.00
2022-08-05T23:51:52.485Z,8.20
2022-08-05T23:54:01.251Z,5.03
2022-08-05T23:56:04.248Z,3.90
2022-08-05T23:58:31.794Z,5.60
